sensor_id;sensor_type;location;lat;lon;timestamp;temperature;humidity
41437;DHT22;27178;49.460;10.850;2022-09-09T00:02:08;21.20;58.80
41437;DHT22;27178;49.460;10.850;2022-09-09T00:04:39;21.20;58.90
41437;DHT22;27178;49.460;10.850;2022-09-09T00:07:18;21.20;58.90
41437;DHT22;27178;49.460;10.850;2022-09-09T00:09:57;21.10;58.80
41437;DHT22;27178;49.460;10.850;2022-09-09T00:12:34;21.20;58.80
41437;DHT22;27178;49.460;10.850;2022-09-09T00:15:07;21.10;58.90
41437;DHT22;27178;49.460;10.850;2022-09-09T00:17:46;21.20;58.90
41437;DHT22;27178;49.460;10.850;2022-09-09T00:20:19;21.10;58.90
41437;DHT22;27178;49.460;10.850;2022-09-09T00:22:57;21.10;58.90
41437;DHT22;27178;49.460;10.850;2022-09-09T00:25:31;21.20;58.90
41437;DHT22;27178;49.460;10.850;2022-09-09T00:28:13;21.10;58.70
41437;DHT22;27178;49.460;10.850;2022-09-09T00:30:46;21.10;58.90
41437;DHT22;27178;49.460;10.850;2022-09-09T00:33:18;21.10;58.80
41437;DHT22;27178;49.460;10.850;2022-09-09T00:35:50;21.10;58.80
41437;DHT22;27178;49.460;10.850;2022-09-09T00:38:25;21.10;58.70
41437;DHT22;27178;49.460;10.850;2022-09-09T00:41:00;21.10;58.80
41437;DHT22;27178;49.460;10.850;2022-09-09T00:43:30;21.10;58.80
41437;DHT22;27178;49.460;10.850;2022-09-09T00:46:21;21.10;58.80
41437;DHT22;27178;49.460;10.850;2022-09-09T00:49:00;21.10;58.90
41437;DHT22;27178;49.460;10.850;2022-09-09T00:51:40;21.00;58.80
41437;DHT22;27178;49.460;10.850;2022-09-09T00:54:31;21.00;58.90
41437;DHT22;27178;49.460;10.850;2022-09-09T00:57:13;21.00;58.90
41437;DHT22;27178;49.460;10.850;2022-09-09T00:59:47;21.00;58.90
41437;DHT22;27178;49.460;10.850;2022-09-09T01:02:27;20.90;58.90
41437;DHT22;27178;49.460;10.850;2022-09-09T01:05:01;20.90;58.90
41437;DHT22;27178;49.460;10.850;2022-09-09T01:07:30;20.90;58.90
41437;DHT22;27178;49.460;10.850;2022-09-09T01:10:02;20.80;58.90
41437;DHT22;27178;49.460;10.850;2022-09-09T01:12:38;20.80;59.00
41437;DHT22;27178;49.460;10.850;2022-09-09T01:15:10;20.80;59.10
41437;DHT22;27178;49.460;10.850;2022-09-09T01:17:53;20.70;59.10
41437;DHT22;27178;49.460;10.850;2022-09-09T01:20:25;20.70;59.20
41437;DHT22;27178;49.460;10.850;2022-09-09T01:23:07;20.70;59.20
41437;DHT22;27178;49.460;10.850;2022-09-09T01:26:16;20.60;59.40
41437;DHT22;27178;49.460;10.850;2022-09-09T01:28:47;20.60;59.40
41437;DHT22;27178;49.460;10.850;2022-09-09T01:31:20;20.60;59.30
41437;DHT22;27178;49.460;10.850;2022-09-09T01:33:50;20.60;59.50
41437;DHT22;27178;49.460;10.850;2022-09-09T01:36:24;20.60;59.60
41437;DHT22;27178;49.460;10.850;2022-09-09T01:38:54;20.50;59.50
41437;DHT22;27178;49.460;10.850;2022-09-09T01:41:24;20.50;59.50
41437;DHT22;27178;49.460;10.850;2022-09-09T01:43:54;20.50;59.50
41437;DHT22;27178;49.460;10.850;2022-09-09T01:46:23;20.50;59.60
41437;DHT22;27178;49.460;10.850;2022-09-09T01:52:39;20.40;59.90
41437;DHT22;27178;49.460;10.850;2022-09-09T01:55:08;20.40;59.70
41437;DHT22;27178;49.460;10.850;2022-09-09T01:57:45;20.40;59.80
41437;DHT22;27178;49.460;10.850;2022-09-09T02:00:18;20.30;60.00
41437;DHT22;27178;49.460;10.850;2022-09-09T02:02:54;20.30;59.90
41437;DHT22;27178;49.460;10.850;2022-09-09T02:05:32;20.20;60.10
41437;DHT22;27178;49.460;10.850;2022-09-09T02:08:06;20.20;60.30
41437;DHT22;27178;49.460;10.850;2022-09-09T02:10:40;20.20;60.10
41437;DHT22;27178;49.460;10.850;2022-09-09T02:13:14;20.20;60.30
41437;DHT22;27178;49.460;10.850;2022-09-09T02:15:47;19.70;60.10
41437;DHT22;27178;49.460;10.850;2022-09-09T02:18:20;20.10;60.50
41437;DHT22;27178;49.460;10.850;2022-09-09T02:20:53;20.10;60.50
41437;DHT22;27178;49.460;10.850;2022-09-09T02:23:22;20.10;60.50
41437;DHT22;27178;49.460;10.850;2022-09-09T02:25:51;20.10;60.50
41437;DHT22;27178;49.460;10.850;2022-09-09T02:28:24;20.10;60.60
41437;DHT22;27178;49.460;10.850;2022-09-09T02:30:55;20.00;60.60
41437;DHT22;27178;49.460;10.850;2022-09-09T02:33:28;20.00;60.60
41437;DHT22;27178;49.460;10.850;2022-09-09T02:35:58;20.00;60.70
41437;DHT22;27178;49.460;10.850;2022-09-09T02:38:33;20.00;60.70
41437;DHT22;27178;49.460;10.850;2022-09-09T02:41:03;20.00;60.70
41437;DHT22;27178;49.460;10.850;2022-09-09T02:43:34;20.00;60.60
41437;DHT22;27178;49.460;10.850;2022-09-09T02:46:08;20.00;60.90
41437;DHT22;27178;49.460;10.850;2022-09-09T02:48:47;20.00;60.90
41437;DHT22;27178;49.460;10.850;2022-09-09T02:51:23;20.00;61.00
41437;DHT22;27178;49.460;10.850;2022-09-09T02:53:57;20.00;61.10
41437;DHT22;27178;49.460;10.850;2022-09-09T02:56:31;20.00;61.30
41437;DHT22;27178;49.460;10.850;2022-09-09T02:59:05;19.90;61.40
41437;DHT22;27178;49.460;10.850;2022-09-09T03:01:33;19.90;61.10
41437;DHT22;27178;49.460;10.850;2022-09-09T03:04:02;19.80;61.10
41437;DHT22;27178;49.460;10.850;2022-09-09T03:06:32;19.80;61.40
41437;DHT22;27178;49.460;10.850;2022-09-09T03:09:00;19.70;61.60
41437;DHT22;27178;49.460;10.850;2022-09-09T03:11:30;19.70;61.80
41437;DHT22;27178;49.460;10.850;2022-09-09T03:13:58;19.60;62.00
41437;DHT22;27178;49.460;10.850;2022-09-09T03:16:28;19.60;62.20
41437;DHT22;27178;49.460;10.850;2022-09-09T03:18:57;19.50;62.20
41437;DHT22;27178;49.460;10.850;2022-09-09T03:21:25;19.50;62.30
41437;DHT22;27178;49.460;10.850;2022-09-09T03:23:54;19.50;62.50
41437;DHT22;27178;49.460;10.850;2022-09-09T03:26:24;19.50;62.50
41437;DHT22;27178;49.460;10.850;2022-09-09T03:28:52;19.50;62.40
41437;DHT22;27178;49.460;10.850;2022-09-09T03:31:21;19.50;62.30
41437;DHT22;27178;49.460;10.850;2022-09-09T03:33:50;19.60;62.50
41437;DHT22;27178;49.460;10.850;2022-09-09T03:36:19;19.60;62.50
41437;DHT22;27178;49.460;10.850;2022-09-09T03:38:47;19.60;62.40
41437;DHT22;27178;49.460;10.850;2022-09-09T03:41:16;19.70;62.40
41437;DHT22;27178;49.460;10.850;2022-09-09T03:43:45;19.70;62.20
41437;DHT22;27178;49.460;10.850;2022-09-09T03:46:13;19.70;62.20
41437;DHT22;27178;49.460;10.850;2022-09-09T03:48:41;19.70;62.10
41437;DHT22;27178;49.460;10.850;2022-09-09T03:51:11;19.70;62.00
41437;DHT22;27178;49.460;10.850;2022-09-09T03:53:40;19.80;62.10
41437;DHT22;27178;49.460;10.850;2022-09-09T03:56:08;19.80;61.90
41437;DHT22;27178;49.460;10.850;2022-09-09T03:58:37;19.80;61.80
41437;DHT22;27178;49.460;10.850;2022-09-09T04:01:07;19.90;62.70
41437;DHT22;27178;49.460;10.850;2022-09-09T04:03:36;19.90;61.80
41437;DHT22;27178;49.460;10.850;2022-09-09T04:06:06;19.90;61.70
41437;DHT22;27178;49.460;10.850;2022-09-09T04:08:59;19.90;61.70
41437;DHT22;27178;49.460;10.850;2022-09-09T04:11:29;19.90;61.70
41437;DHT22;27178;49.460;10.850;2022-09-09T04:13:57;19.80;61.60
41437;DHT22;27178;49.460;10.850;2022-09-09T04:16:26;19.90;61.60
41437;DHT22;27178;49.460;10.850;2022-09-09T04:18:54;19.80;61.70
41437;DHT22;27178;49.460;10.850;2022-09-09T04:21:22;19.80;61.60
41437;DHT22;27178;49.460;10.850;2022-09-09T04:23:51;19.80;61.60
41437;DHT22;27178;49.460;10.850;2022-09-09T04:26:20;19.80;61.60
41437;DHT22;27178;49.460;10.850;2022-09-09T04:28:49;19.80;61.80
41437;DHT22;27178;49.460;10.850;2022-09-09T04:31:19;19.80;61.70
41437;DHT22;27178;49.460;10.850;2022-09-09T04:33:48;19.80;61.70
41437;DHT22;27178;49.460;10.850;2022-09-09T04:36:17;19.80;61.80
41437;DHT22;27178;49.460;10.850;2022-09-09T04:38:46;19.80;61.80
41437;DHT22;27178;49.460;10.850;2022-09-09T04:41:15;19.70;61.80
41437;DHT22;27178;49.460;10.850;2022-09-09T04:43:47;19.70;61.80
41437;DHT22;27178;49.460;10.850;2022-09-09T04:46:16;19.70;61.80
41437;DHT22;27178;49.460;10.850;2022-09-09T04:48:44;19.70;61.80
41437;DHT22;27178;49.460;10.850;2022-09-09T04:51:13;19.70;62.00
41437;DHT22;27178;49.460;10.850;2022-09-09T04:53:42;19.70;62.00
41437;DHT22;27178;49.460;10.850;2022-09-09T04:56:11;19.70;62.20
41437;DHT22;27178;49.460;10.850;2022-09-09T04:58:41;19.70;62.20
41437;DHT22;27178;49.460;10.850;2022-09-09T05:01:12;19.60;62.00
41437;DHT22;27178;49.460;10.850;2022-09-09T05:03:41;19.60;62.10
41437;DHT22;27178;49.460;10.850;2022-09-09T05:06:13;19.60;62.20
41437;DHT22;27178;49.460;10.850;2022-09-09T05:08:43;19.60;62.20
41437;DHT22;27178;49.460;10.850;2022-09-09T05:11:14;19.60;62.30
41437;DHT22;27178;49.460;10.850;2022-09-09T05:13:44;19.60;62.30
41437;DHT22;27178;49.460;10.850;2022-09-09T05:16:14;19.60;62.30
41437;DHT22;27178;49.460;10.850;2022-09-09T05:18:43;19.60;62.20
41437;DHT22;27178;49.460;10.850;2022-09-09T05:21:14;19.60;62.20
41437;DHT22;27178;49.460;10.850;2022-09-09T05:23:42;19.70;62.20
41437;DHT22;27178;49.460;10.850;2022-09-09T05:26:13;19.70;62.20
41437;DHT22;27178;49.460;10.850;2022-09-09T05:28:44;19.70;62.20
41437;DHT22;27178;49.460;10.850;2022-09-09T05:31:15;19.70;62.20
41437;DHT22;27178;49.460;10.850;2022-09-09T05:33:45;19.70;62.20
41437;DHT22;27178;49.460;10.850;2022-09-09T05:36:17;19.70;62.10
41437;DHT22;27178;49.460;10.850;2022-09-09T05:38:46;19.70;62.00
41437;DHT22;27178;49.460;10.850;2022-09-09T05:41:15;19.80;62.10
41437;DHT22;27178;49.460;10.850;2022-09-09T05:43:44;19.80;62.20
41437;DHT22;27178;49.460;10.850;2022-09-09T05:46:16;19.80;62.00
41437;DHT22;27178;49.460;10.850;2022-09-09T05:48:46;19.80;61.90
41437;DHT22;27178;49.460;10.850;2022-09-09T05:51:16;19.90;61.80
41437;DHT22;27178;49.460;10.850;2022-09-09T05:53:45;19.90;61.80
41437;DHT22;27178;49.460;10.850;2022-09-09T05:56:15;19.90;61.60
41437;DHT22;27178;49.460;10.850;2022-09-09T05:58:45;19.90;61.70
41437;DHT22;27178;49.460;10.850;2022-09-09T06:01:17;19.90;61.60
41437;DHT22;27178;49.460;10.850;2022-09-09T06:03:47;19.90;61.80
41437;DHT22;27178;49.460;10.850;2022-09-09T06:06:17;19.90;62.00
41437;DHT22;27178;49.460;10.850;2022-09-09T06:08:48;19.90;61.90
41437;DHT22;27178;49.460;10.850;2022-09-09T06:11:20;19.90;61.70
41437;DHT22;27178;49.460;10.850;2022-09-09T06:13:50;19.90;61.70
41437;DHT22;27178;49.460;10.850;2022-09-09T06:16:24;19.90;61.80
41437;DHT22;27178;49.460;10.850;2022-09-09T06:18:53;20.00;61.80
41437;DHT22;27178;49.460;10.850;2022-09-09T06:21:24;19.90;61.60
41437;DHT22;27178;49.460;10.850;2022-09-09T06:23:54;20.00;62.20
41437;DHT22;27178;49.460;10.850;2022-09-09T06:26:27;20.00;61.60
41437;DHT22;27178;49.460;10.850;2022-09-09T06:28:59;20.00;61.70
41437;DHT22;27178;49.460;10.850;2022-09-09T06:31:29;20.00;61.80
41437;DHT22;27178;49.460;10.850;2022-09-09T06:33:58;20.00;62.00
41437;DHT22;27178;49.460;10.850;2022-09-09T06:36:28;20.00;61.90
41437;DHT22;27178;49.460;10.850;2022-09-09T06:38:58;20.00;62.20
41437;DHT22;27178;49.460;10.850;2022-09-09T06:41:28;20.00;62.20
41437;DHT22;27178;49.460;10.850;2022-09-09T06:43:56;20.00;62.20
41437;DHT22;27178;49.460;10.850;2022-09-09T06:46:27;20.00;62.30
41437;DHT22;27178;49.460;10.850;2022-09-09T06:48:57;20.10;62.20
41437;DHT22;27178;49.460;10.850;2022-09-09T06:51:27;20.10;62.40
41437;DHT22;27178;49.460;10.850;2022-09-09T06:53:57;20.10;63.40
41437;DHT22;27178;49.460;10.850;2022-09-09T06:56:26;20.10;62.50
41437;DHT22;27178;49.460;10.850;2022-09-09T06:58:56;20.10;62.50
41437;DHT22;27178;49.460;10.850;2022-09-09T07:01:29;20.20;62.50
41437;DHT22;27178;49.460;10.850;2022-09-09T07:03:59;20.20;62.30
41437;DHT22;27178;49.460;10.850;2022-09-09T07:06:28;20.20;62.50
41437;DHT22;27178;49.460;10.850;2022-09-09T07:08:59;20.20;62.50
41437;DHT22;27178;49.460;10.850;2022-09-09T07:11:29;20.20;62.20
41437;DHT22;27178;49.460;10.850;2022-09-09T07:13:59;20.20;62.30
41437;DHT22;27178;49.460;10.850;2022-09-09T07:16:29;20.20;62.20
41437;DHT22;27178;49.460;10.850;2022-09-09T07:18:58;20.30;62.30
41437;DHT22;27178;49.460;10.850;2022-09-09T07:21:29;20.30;62.40
41437;DHT22;27178;49.460;10.850;2022-09-09T07:23:57;20.30;62.50
41437;DHT22;27178;49.460;10.850;2022-09-09T07:26:28;20.30;62.40
41437;DHT22;27178;49.460;10.850;2022-09-09T07:28:58;20.30;62.50
41437;DHT22;27178;49.460;10.850;2022-09-09T07:31:29;20.30;62.60
41437;DHT22;27178;49.460;10.850;2022-09-09T07:33:59;20.40;62.80
41437;DHT22;27178;49.460;10.850;2022-09-09T07:36:28;20.40;62.70
41437;DHT22;27178;49.460;10.850;2022-09-09T07:39:00;20.50;62.70
41437;DHT22;27178;49.460;10.850;2022-09-09T07:41:33;20.50;62.80
41437;DHT22;27178;49.460;10.850;2022-09-09T07:44:04;20.60;62.90
41437;DHT22;27178;49.460;10.850;2022-09-09T07:46:35;20.60;62.60
41437;DHT22;27178;49.460;10.850;2022-09-09T07:49:03;20.70;62.80
41437;DHT22;27178;49.460;10.850;2022-09-09T07:51:34;20.70;63.10
41437;DHT22;27178;49.460;10.850;2022-09-09T07:54:05;20.80;63.30
41437;DHT22;27178;49.460;10.850;2022-09-09T07:56:34;20.80;62.90
41437;DHT22;27178;49.460;10.850;2022-09-09T07:59:06;20.90;62.70
41437;DHT22;27178;49.460;10.850;2022-09-09T08:01:39;21.00;62.40
41437;DHT22;27178;49.460;10.850;2022-09-09T08:04:09;21.00;62.20
41437;DHT22;27178;49.460;10.850;2022-09-09T08:06:43;21.00;62.00
41437;DHT22;27178;49.460;10.850;2022-09-09T08:09:15;21.10;61.80
41437;DHT22;27178;49.460;10.850;2022-09-09T08:11:44;21.20;61.70
41437;DHT22;27178;49.460;10.850;2022-09-09T08:14:13;21.20;61.70
41437;DHT22;27178;49.460;10.850;2022-09-09T08:16:44;21.20;61.50
41437;DHT22;27178;49.460;10.850;2022-09-09T08:19:13;21.30;61.40
41437;DHT22;27178;49.460;10.850;2022-09-09T08:21:43;21.30;61.50
41437;DHT22;27178;49.460;10.850;2022-09-09T08:24:13;21.30;61.50
41437;DHT22;27178;49.460;10.850;2022-09-09T08:26:43;21.40;61.30
41437;DHT22;27178;49.460;10.850;2022-09-09T08:29:13;21.40;61.30
41437;DHT22;27178;49.460;10.850;2022-09-09T08:31:44;21.40;60.80
41437;DHT22;27178;49.460;10.850;2022-09-09T08:34:13;21.50;60.80
41437;DHT22;27178;49.460;10.850;2022-09-09T08:36:44;21.50;60.80
41437;DHT22;27178;49.460;10.850;2022-09-09T08:39:13;21.60;60.90
41437;DHT22;27178;49.460;10.850;2022-09-09T08:42:07;21.60;60.80
41437;DHT22;27178;49.460;10.850;2022-09-09T08:44:58;21.70;60.60
41437;DHT22;27178;49.460;10.850;2022-09-09T08:47:37;21.70;60.60
41437;DHT22;27178;49.460;10.850;2022-09-09T08:50:18;21.70;60.50
41437;DHT22;27178;49.460;10.850;2022-09-09T08:52:53;21.80;60.40
41437;DHT22;27178;49.460;10.850;2022-09-09T08:55:32;21.80;60.50
41437;DHT22;27178;49.460;10.850;2022-09-09T08:58:09;21.90;60.30
41437;DHT22;27178;49.460;10.850;2022-09-09T09:00:45;21.90;60.40
41437;DHT22;27178;49.460;10.850;2022-09-09T09:03:24;22.00;60.40
41437;DHT22;27178;49.460;10.850;2022-09-09T09:06:04;22.00;60.10
41437;DHT22;27178;49.460;10.850;2022-09-09T09:08:41;22.10;59.80
41437;DHT22;27178;49.460;10.850;2022-09-09T09:11:12;22.10;59.90
41437;DHT22;27178;49.460;10.850;2022-09-09T09:13:44;22.20;59.70
41437;DHT22;27178;49.460;10.850;2022-09-09T09:16:21;22.20;59.40
41437;DHT22;27178;49.460;10.850;2022-09-09T09:18:53;22.30;59.30
41437;DHT22;27178;49.460;10.850;2022-09-09T09:21:29;22.30;59.30
41437;DHT22;27178;49.460;10.850;2022-09-09T09:24:01;22.40;59.30
41437;DHT22;27178;49.460;10.850;2022-09-09T09:26:35;22.40;59.40
41437;DHT22;27178;49.460;10.850;2022-09-09T09:29:10;22.50;59.30
41437;DHT22;27178;49.460;10.850;2022-09-09T09:31:41;22.50;59.00
41437;DHT22;27178;49.460;10.850;2022-09-09T09:34:11;22.50;59.10
41437;DHT22;27178;49.460;10.850;2022-09-09T09:36:42;22.60;59.30
41437;DHT22;27178;49.460;10.850;2022-09-09T09:39:23;22.60;59.20
41437;DHT22;27178;49.460;10.850;2022-09-09T09:42:13;22.70;59.20
41437;DHT22;27178;49.460;10.850;2022-09-09T09:44:49;22.80;59.30
41437;DHT22;27178;49.460;10.850;2022-09-09T09:47:18;22.80;59.10
41437;DHT22;27178;49.460;10.850;2022-09-09T09:49:55;22.90;59.00
41437;DHT22;27178;49.460;10.850;2022-09-09T09:52:26;23.00;58.70
41437;DHT22;27178;49.460;10.850;2022-09-09T09:54:57;23.00;58.60
41437;DHT22;27178;49.460;10.850;2022-09-09T09:57:33;23.10;58.50
41437;DHT22;27178;49.460;10.850;2022-09-09T10:00:11;23.20;58.50
41437;DHT22;27178;49.460;10.850;2022-09-09T10:02:42;23.30;58.20
41437;DHT22;27178;49.460;10.850;2022-09-09T10:05:16;23.30;57.70
41437;DHT22;27178;49.460;10.850;2022-09-09T10:08:05;23.40;57.10
41437;DHT22;27178;49.460;10.850;2022-09-09T10:10:42;23.50;57.40
41437;DHT22;27178;49.460;10.850;2022-09-09T10:13:19;23.50;57.40
41437;DHT22;27178;49.460;10.850;2022-09-09T10:15:59;23.60;57.40
41437;DHT22;27178;49.460;10.850;2022-09-09T10:18:41;23.70;57.20
41437;DHT22;27178;49.460;10.850;2022-09-09T10:21:24;23.80;57.00
41437;DHT22;27178;49.460;10.850;2022-09-09T10:24:13;23.90;57.10
41437;DHT22;27178;49.460;10.850;2022-09-09T10:26:48;24.10;56.60
41437;DHT22;27178;49.460;10.850;2022-09-09T10:29:44;24.20;56.50
41437;DHT22;27178;49.460;10.850;2022-09-09T10:32:33;24.30;55.90
41437;DHT22;27178;49.460;10.850;2022-09-09T10:35:10;24.30;56.00
41437;DHT22;27178;49.460;10.850;2022-09-09T10:38:09;24.40;55.60
41437;DHT22;27178;49.460;10.850;2022-09-09T10:40:43;24.40;55.30
41437;DHT22;27178;49.460;10.850;2022-09-09T10:43:18;24.40;54.60
41437;DHT22;27178;49.460;10.850;2022-09-09T10:45:56;24.40;55.20
41437;DHT22;27178;49.460;10.850;2022-09-09T10:48:42;24.40;55.40
41437;DHT22;27178;49.460;10.850;2022-09-09T10:51:23;24.50;55.20
41437;DHT22;27178;49.460;10.850;2022-09-09T10:54:09;24.60;54.60
41437;DHT22;27178;49.460;10.850;2022-09-09T10:56:43;24.70;54.50
41437;DHT22;27178;49.460;10.850;2022-09-09T10:59:16;24.80;54.30
41437;DHT22;27178;49.460;10.850;2022-09-09T11:01:51;25.00;54.60
41437;DHT22;27178;49.460;10.850;2022-09-09T11:04:25;25.10;53.80
41437;DHT22;27178;49.460;10.850;2022-09-09T11:06:55;25.10;53.60
41437;DHT22;27178;49.460;10.850;2022-09-09T11:09:28;25.20;53.80
41437;DHT22;27178;49.460;10.850;2022-09-09T11:12:19;25.10;53.30
41437;DHT22;27178;49.460;10.850;2022-09-09T11:14:50;25.10;53.50
41437;DHT22;27178;49.460;10.850;2022-09-09T11:17:24;25.10;53.20
41437;DHT22;27178;49.460;10.850;2022-09-09T11:19:55;25.10;53.50
41437;DHT22;27178;49.460;10.850;2022-09-09T11:22:27;25.00;53.70
41437;DHT22;27178;49.460;10.850;2022-09-09T11:25:05;24.90;53.10
41437;DHT22;27178;49.460;10.850;2022-09-09T11:27:42;24.90;52.70
41437;DHT22;27178;49.460;10.850;2022-09-09T11:30:20;24.90;53.10
41437;DHT22;27178;49.460;10.850;2022-09-09T11:33:42;24.80;52.70
41437;DHT22;27178;49.460;10.850;2022-09-09T11:36:46;24.80;52.30
41437;DHT22;27178;49.460;10.850;2022-09-09T11:39:51;24.80;53.10
41437;DHT22;27178;49.460;10.850;2022-09-09T11:42:27;24.80;53.20
41437;DHT22;27178;49.460;10.850;2022-09-09T11:44:56;24.70;53.30
41437;DHT22;27178;49.460;10.850;2022-09-09T11:47:27;24.70;53.10
41437;DHT22;27178;49.460;10.850;2022-09-09T11:50:08;24.60;53.30
41437;DHT22;27178;49.460;10.850;2022-09-09T11:52:40;24.60;53.40
41437;DHT22;27178;49.460;10.850;2022-09-09T11:55:25;24.70;53.80
41437;DHT22;27178;49.460;10.850;2022-09-09T11:57:59;24.70;53.50
41437;DHT22;27178;49.460;10.850;2022-09-09T12:00:34;24.80;53.40
41437;DHT22;27178;49.460;10.850;2022-09-09T12:03:04;24.80;54.20
41437;DHT22;27178;49.460;10.850;2022-09-09T12:05:38;24.90;53.40
41437;DHT22;27178;49.460;10.850;2022-09-09T12:08:09;25.00;53.40
41437;DHT22;27178;49.460;10.850;2022-09-09T12:10:53;25.10;53.80
41437;DHT22;27178;49.460;10.850;2022-09-09T12:13:25;25.30;53.50
41437;DHT22;27178;49.460;10.850;2022-09-09T12:15:56;25.50;53.10
41437;DHT22;27178;49.460;10.850;2022-09-09T12:18:25;25.70;53.00
41437;DHT22;27178;49.460;10.850;2022-09-09T12:21:02;25.80;52.30
41437;DHT22;27178;49.460;10.850;2022-09-09T12:23:41;25.90;51.70
41437;DHT22;27178;49.460;10.850;2022-09-09T12:26:26;25.90;51.40
41437;DHT22;27178;49.460;10.850;2022-09-09T12:29:04;25.90;50.00
41437;DHT22;27178;49.460;10.850;2022-09-09T12:31:38;25.80;50.60
41437;DHT22;27178;49.460;10.850;2022-09-09T12:34:15;25.70;50.90
41437;DHT22;27178;49.460;10.850;2022-09-09T12:36:47;25.70;50.80
41437;DHT22;27178;49.460;10.850;2022-09-09T12:39:22;25.50;51.20
41437;DHT22;27178;49.460;10.850;2022-09-09T12:41:54;25.40;51.40
41437;DHT22;27178;49.460;10.850;2022-09-09T12:44:26;25.30;51.40
41437;DHT22;27178;49.460;10.850;2022-09-09T12:46:57;25.20;51.90
41437;DHT22;27178;49.460;10.850;2022-09-09T12:49:29;25.10;52.80
41437;DHT22;27178;49.460;10.850;2022-09-09T12:52:02;24.90;54.70
41437;DHT22;27178;49.460;10.850;2022-09-09T12:54:34;24.60;57.30
41437;DHT22;27178;49.460;10.850;2022-09-09T12:57:03;24.30;58.40
41437;DHT22;27178;49.460;10.850;2022-09-09T12:59:37;24.10;59.10
41437;DHT22;27178;49.460;10.850;2022-09-09T13:02:20;23.70;59.00
41437;DHT22;27178;49.460;10.850;2022-09-09T13:04:49;23.40;62.90
41437;DHT22;27178;49.460;10.850;2022-09-09T13:07:19;23.10;62.20
41437;DHT22;27178;49.460;10.850;2022-09-09T13:09:48;22.90;64.30
41437;DHT22;27178;49.460;10.850;2022-09-09T13:12:19;22.80;66.80
41437;DHT22;27178;49.460;10.850;2022-09-09T13:14:52;22.80;68.90
41437;DHT22;27178;49.460;10.850;2022-09-09T13:17:22;22.90;69.70
41437;DHT22;27178;49.460;10.850;2022-09-09T13:19:52;22.90;69.30
41437;DHT22;27178;49.460;10.850;2022-09-09T13:22:28;23.10;69.80
41437;DHT22;27178;49.460;10.850;2022-09-09T13:25:06;23.30;70.70
41437;DHT22;27178;49.460;10.850;2022-09-09T13:27:53;23.50;70.50
41437;DHT22;27178;49.460;10.850;2022-09-09T13:30:26;23.60;70.80
41437;DHT22;27178;49.460;10.850;2022-09-09T13:33:02;23.80;68.80
41437;DHT22;27178;49.460;10.850;2022-09-09T13:35:32;23.90;68.50
41437;DHT22;27178;49.460;10.850;2022-09-09T13:38:07;23.90;67.20
41437;DHT22;27178;49.460;10.850;2022-09-09T13:40:37;23.90;67.90
41437;DHT22;27178;49.460;10.850;2022-09-09T13:43:17;23.90;67.40
41437;DHT22;27178;49.460;10.850;2022-09-09T13:46:25;23.90;67.90
41437;DHT22;27178;49.460;10.850;2022-09-09T13:48:56;23.90;68.30
41437;DHT22;27178;49.460;10.850;2022-09-09T13:51:35;23.90;67.10
41437;DHT22;27178;49.460;10.850;2022-09-09T13:54:06;23.90;67.70
41437;DHT22;27178;49.460;10.850;2022-09-09T13:56:37;23.80;67.20
41437;DHT22;27178;49.460;10.850;2022-09-09T13:59:11;23.80;67.00
41437;DHT22;27178;49.460;10.850;2022-09-09T14:01:43;23.80;67.50
41437;DHT22;27178;49.460;10.850;2022-09-09T14:04:32;23.70;66.70
41437;DHT22;27178;49.460;10.850;2022-09-09T14:07:03;24.30;67.50
41437;DHT22;27178;49.460;10.850;2022-09-09T14:09:31;23.70;67.50
41437;DHT22;27178;49.460;10.850;2022-09-09T14:12:00;23.60;67.50
41437;DHT22;27178;49.460;10.850;2022-09-09T14:14:29;23.60;67.50
41437;DHT22;27178;49.460;10.850;2022-09-09T14:16:58;23.60;67.60
41437;DHT22;27178;49.460;10.850;2022-09-09T14:19:31;23.70;67.70
41437;DHT22;27178;49.460;10.850;2022-09-09T14:22:00;23.60;67.30
41437;DHT22;27178;49.460;10.850;2022-09-09T14:24:28;23.60;67.30
41437;DHT22;27178;49.460;10.850;2022-09-09T14:26:57;23.60;67.60
41437;DHT22;27178;49.460;10.850;2022-09-09T14:29:25;23.60;67.40
41437;DHT22;27178;49.460;10.850;2022-09-09T14:31:53;23.60;67.00
41437;DHT22;27178;49.460;10.850;2022-09-09T14:34:23;23.50;66.30
41437;DHT22;27178;49.460;10.850;2022-09-09T14:36:51;23.50;66.00
41437;DHT22;27178;49.460;10.850;2022-09-09T14:39:20;23.50;65.50
41437;DHT22;27178;49.460;10.850;2022-09-09T14:41:48;23.50;66.80
41437;DHT22;27178;49.460;10.850;2022-09-09T14:44:16;23.40;65.70
41437;DHT22;27178;49.460;10.850;2022-09-09T14:46:45;23.40;64.50
41437;DHT22;27178;49.460;10.850;2022-09-09T14:49:13;23.40;64.10
41437;DHT22;27178;49.460;10.850;2022-09-09T14:51:43;23.40;64.20
41437;DHT22;27178;49.460;10.850;2022-09-09T14:54:11;23.40;63.80
41437;DHT22;27178;49.460;10.850;2022-09-09T14:56:40;23.50;63.30
41437;DHT22;27178;49.460;10.850;2022-09-09T14:59:08;23.50;62.70
41437;DHT22;27178;49.460;10.850;2022-09-09T15:01:36;23.50;62.40
41437;DHT22;27178;49.460;10.850;2022-09-09T15:04:05;23.60;61.60
41437;DHT22;27178;49.460;10.850;2022-09-09T15:06:35;23.60;60.80
41437;DHT22;27178;49.460;10.850;2022-09-09T15:09:07;23.60;60.90
41437;DHT22;27178;49.460;10.850;2022-09-09T15:11:37;23.60;60.00
41437;DHT22;27178;49.460;10.850;2022-09-09T15:14:06;23.50;59.50
41437;DHT22;27178;49.460;10.850;2022-09-09T15:16:35;23.50;60.00
41437;DHT22;27178;49.460;10.850;2022-09-09T15:19:05;23.50;60.70
41437;DHT22;27178;49.460;10.850;2022-09-09T15:21:36;23.50;59.90
41437;DHT22;27178;49.460;10.850;2022-09-09T15:24:06;23.50;59.10
41437;DHT22;27178;49.460;10.850;2022-09-09T15:26:35;23.50;60.20
41437;DHT22;27178;49.460;10.850;2022-09-09T15:29:05;23.50;60.30
41437;DHT22;27178;49.460;10.850;2022-09-09T15:31:35;23.60;60.60
41437;DHT22;27178;49.460;10.850;2022-09-09T15:34:05;23.70;60.40
41437;DHT22;27178;49.460;10.850;2022-09-09T15:36:35;23.80;61.30
41437;DHT22;27178;49.460;10.850;2022-09-09T15:39:05;24.00;60.10
41437;DHT22;27178;49.460;10.850;2022-09-09T15:41:35;24.20;59.20
41437;DHT22;27178;49.460;10.850;2022-09-09T15:44:04;24.30;58.80
41437;DHT22;27178;49.460;10.850;2022-09-09T15:46:33;24.50;58.30
41437;DHT22;27178;49.460;10.850;2022-09-09T15:49:06;24.50;58.10
41437;DHT22;27178;49.460;10.850;2022-09-09T15:51:36;24.60;57.20
41437;DHT22;27178;49.460;10.850;2022-09-09T15:54:11;24.70;57.80
41437;DHT22;27178;49.460;10.850;2022-09-09T15:56:41;24.80;57.40